Time;durP1;ratioP1;P1;durP2;ratioP2;P2;SDS_P1;SDS_P2;PMS_P1;PMS_P2;Temp;Humidity;BMP_temperature;BMP_pressure;BME280_temperature;BME280_humidity;BME280_pressure;Samples;Min_cycle;Max_cycle;Signal;HPM_P1;HPM_P2
2022/05/20 00:02:08;;;;;;;5.70;1.70;;;18.50;74.50;;;;;;4997589;28;20379;-72
2022/05/20 00:04:33;;;;;;;3.83;1.83;;;18.40;74.40;;;;;;4972550;28;20590;-72
2022/05/20 00:06:59;;;;;;;6.32;1.77;;;18.40;74.40;;;;;;4939857;28;20030;-72
2022/05/20 00:09:24;;;;;;;6.95;1.70;;;18.40;74.50;;;;;;4982325;28;20064;-72
2022/05/20 00:11:50;;;;;;;4.57;1.95;;;18.30;74.60;;;;;;4961009;28;20033;-72
2022/05/20 00:14:15;;;;;;;5.65;1.75;;;18.30;74.60;;;;;;4965798;28;20101;-71
2022/05/20 00:16:41;;;;;;;12.63;2.10;;;18.20;74.50;;;;;;4981495;28;20053;-72
2022/05/20 00:19:07;;;;;;;6.45;1.83;;;18.20;74.50;;;;;;4972141;28;20049;-73
2022/05/20 00:21:33;;;;;;;3.25;2.03;;;18.10;74.70;;;;;;4965796;28;20042;-73
2022/05/20 00:23:58;;;;;;;2.58;1.60;;;18.20;74.80;;;;;;4980454;28;20037;-72
2022/05/20 00:26:24;;;;;;;4.93;2.00;;;18.10;74.90;;;;;;4987878;28;20041;-73
2022/05/20 00:28:50;;;;;;;5.57;1.92;;;18.10;74.80;;;;;;4977674;28;20045;-71
2022/05/20 00:31:16;;;;;;;7.72;2.10;;;18.00;74.90;;;;;;4985505;28;20060;-72
2022/05/20 00:33:41;;;;;;;6.80;2.10;;;18.00;74.90;;;;;;4989643;28;20407;-72
2022/05/20 00:36:07;;;;;;;6.15;2.08;;;17.90;75.00;;;;;;4983063;28;20037;-74
2022/05/20 00:38:33;;;;;;;4.78;1.70;;;17.90;75.10;;;;;;4980940;28;20075;-71
2022/05/20 00:40:58;;;;;;;2.97;1.88;;;17.80;75.20;;;;;;5000579;28;20137;-73
2022/05/20 00:43:29;;;;;;;8.27;2.65;;;17.80;75.30;;;;;;4969042;28;20030;-71
2022/05/20 00:46:23;;;;;;;4.22;2.30;;;17.80;75.50;;;;;;5001598;28;20573;-71
2022/05/20 00:48:59;;;;;;;2.72;1.80;;;17.70;75.70;;;;;;4970971;28;20090;-73
2022/05/20 00:51:27;;;;;;;2.92;1.88;;;17.70;75.30;;;;;;4970757;28;20037;-72
2022/05/20 00:53:57;;;;;;;2.97;1.65;;;17.60;75.30;;;;;;4978006;28;20034;-71
2022/05/20 00:56:26;;;;;;;3.80;2.13;;;17.70;75.60;;;;;;4992827;28;20044;-74
2022/05/20 00:58:51;;;;;;;4.22;2.00;;;17.60;75.50;;;;;;4980117;28;20125;-71
2022/05/20 01:01:17;;;;;;;4.03;1.73;;;17.70;75.60;;;;;;4973315;28;20034;-71
2022/05/20 01:03:43;;;;;;;7.28;1.80;;;17.60;75.60;;;;;;4967966;28;20038;-72
2022/05/20 01:06:09;;;;;;;5.85;1.65;;;17.60;75.60;;;;;;4982286;28;20034;-72
2022/05/20 01:08:35;;;;;;;5.40;2.00;;;17.60;75.50;;;;;;4990161;28;20034;-72
2022/05/20 01:11:01;;;;;;;3.25;1.77;;;17.60;75.60;;;;;;4962381;28;20041;-72
2022/05/20 01:13:27;;;;;;;4.40;1.67;;;17.60;75.60;;;;;;4965808;28;20479;-73
2022/05/20 01:15:54;;;;;;;4.32;1.80;;;17.60;75.60;;;;;;4979328;28;20064;-72
2022/05/20 01:18:19;;;;;;;1.70;1.60;;;17.50;75.80;;;;;;4999787;28;20049;-72
2022/05/20 01:20:47;;;;;;;9.95;2.10;;;17.50;75.70;;;;;;4992944;28;20405;-72
2022/05/20 01:23:14;;;;;;;4.30;2.58;;;17.50;75.70;;;;;;4985938;28;20076;-72
2022/05/20 01:25:41;;;;;;;8.90;1.98;;;17.50;75.90;;;;;;4983491;28;20042;-72
2022/05/20 01:28:07;;;;;;;4.75;1.75;;;17.50;75.90;;;;;;4976703;28;20042;-73
2022/05/20 01:30:32;;;;;;;6.32;2.85;;;17.50;75.90;;;;;;4980825;28;20073;-72
2022/05/20 01:33:02;;;;;;;9.40;2.00;;;17.50;76.00;;;;;;4987499;28;20041;-71
2022/05/20 01:35:44;;;;;;;10.98;1.77;;;17.40;76.00;;;;;;4945714;28;20038;-71
2022/05/20 01:38:10;;;;;;;;;;;17.40;76.70;;;;;;4967476;28;20042;-71
2022/05/20 01:40:47;;;;;;;4.75;2.33;;;17.40;76.10;;;;;;4999430;28;19944;-72
2022/05/20 01:43:23;;;;;;;8.98;2.33;;;17.40;76.20;;;;;;4972439;28;20528;-71
2022/05/20 01:46:04;;;;;;;8.77;2.85;;;17.40;76.30;;;;;;4980804;28;20117;-71
2022/05/20 01:48:31;;;;;;;9.67;2.77;;;17.40;76.80;;;;;;4982370;28;20034;-72
2022/05/20 01:50:57;;;;;;;7.93;4.10;;;17.40;76.70;;;;;;4970154;28;20273;-72
2022/05/20 01:53:27;;;;;;;4.00;2.20;;;17.40;76.70;;;;;;4996254;28;20027;-71
2022/05/20 01:56:03;;;;;;;5.40;2.30;;;17.40;77.10;;;;;;4998020;28;20084;-71
2022/05/20 01:58:32;;;;;;;6.68;2.28;;;17.40;77.00;;;;;;4982186;28;20107;-72
2022/05/20 02:01:00;;;;;;;7.28;2.80;;;17.40;77.10;;;;;;4999311;28;20042;-72
2022/05/20 02:03:41;;;;;;;7.47;3.03;;;17.40;77.10;;;;;;4986898;28;20485;-72
2022/05/20 02:06:22;;;;;;;5.90;3.15;;;17.30;77.60;;;;;;4996759;28;20469;-71
2022/05/20 02:09:00;;;;;;;4.25;2.80;;;17.30;77.30;;;;;;5001742;28;20036;-71
2022/05/20 02:11:39;;;;;;;10.13;3.80;;;17.30;77.40;;;;;;4975564;28;20054;-72
2022/05/20 02:14:09;;;;;;;6.43;2.75;;;17.30;77.30;;;;;;4988659;28;20038;-71
2022/05/20 02:16:37;;;;;;;9.98;4.00;;;17.30;77.50;;;;;;4985486;28;20042;-71
2022/05/20 02:19:18;;;;;;;6.47;3.60;;;17.30;77.30;;;;;;4967882;28;20678;-71
2022/05/20 02:21:46;;;;;;;7.80;3.38;;;17.30;77.70;;;;;;4943630;28;20117;-71
2022/05/20 02:24:14;;;;;;;5.90;2.95;;;17.30;77.80;;;;;;4941171;28;20039;-71
2022/05/20 02:26:49;;;;;;;7.28;2.85;;;17.30;77.90;;;;;;4981871;28;20113;-71
2022/05/20 02:29:20;;;;;;;11.00;3.05;;;17.30;78.30;;;;;;4962471;28;20699;-72
2022/05/20 02:32:04;;;;;;;6.75;3.10;;;17.30;78.10;;;;;;4982549;28;20034;-71
2022/05/20 02:34:32;;;;;;;8.82;3.75;;;17.30;78.20;;;;;;4946289;28;20110;-71
2022/05/20 02:36:58;;;;;;;7.10;3.45;;;17.30;78.30;;;;;;4980406;28;20038;-71
2022/05/20 02:39:24;;;;;;;6.97;3.03;;;17.30;78.50;;;;;;4995784;28;20437;-71
2022/05/20 02:41:50;;;;;;;4.75;3.45;;;17.30;78.60;;;;;;4971786;28;20133;-71
2022/05/20 02:44:16;;;;;;;9.65;3.92;;;17.30;78.60;;;;;;4975473;28;20036;-72
2022/05/20 02:46:42;;;;;;;8.40;3.75;;;17.30;78.70;;;;;;4995539;28;20034;-71
2022/05/20 02:49:08;;;;;;;7.90;4.50;;;17.30;78.80;;;;;;4988790;28;20515;-71
2022/05/20 02:51:34;;;;;;;9.93;5.05;;;17.30;78.90;;;;;;4986785;28;20053;-71
2022/05/20 02:53:59;;;;;;;10.63;4.18;;;17.30;79.20;;;;;;4996414;28;20034;-71
2022/05/20 02:56:25;;;;;;;5.60;3.60;;;17.30;79.40;;;;;;4970865;28;20062;-71
2022/05/20 03:04:20;;;;;;;6.90;3.92;;;17.30;79.60;;;;;;4971449;28;20040;-71
2022/05/20 03:06:51;;;;;;;8.20;3.42;;;17.30;79.70;;;;;;4978174;28;20053;-72
2022/05/20 03:09:19;;;;;;;6.00;3.08;;;17.30;80.80;;;;;;4989832;28;20026;-71
2022/05/20 03:11:44;;;;;;;6.47;3.08;;;17.30;79.90;;;;;;4980716;28;20032;-72
2022/05/20 03:14:11;;;;;;;3.53;2.60;;;17.30;79.90;;;;;;4981792;28;20033;-71
2022/05/20 03:16:37;;;;;;;4.35;2.35;;;17.30;79.90;;;;;;4979936;28;20799;-71
2022/05/20 03:19:04;;;;;;;5.32;3.60;;;17.30;79.90;;;;;;4970026;28;20044;-71
2022/05/20 03:21:30;;;;;;;5.68;3.47;;;17.40;79.90;;;;;;4978801;28;20112;-71
2022/05/20 03:23:55;;;;;;;10.25;5.47;;;17.40;79.80;;;;;;4985669;28;20125;-72
2022/05/20 03:26:21;;;;;;;7.00;3.50;;;17.40;79.90;;;;;;4943555;28;20401;-71
2022/05/20 03:28:47;;;;;;;9.10;5.15;;;17.40;80.00;;;;;;4936759;28;20109;-71
2022/05/20 03:31:12;;;;;;;7.07;5.45;;;17.40;80.00;;;;;;4979744;28;20633;-71
2022/05/20 03:33:39;;;;;;;7.82;5.20;;;17.40;80.00;;;;;;4953213;28;20033;-72
2022/05/20 03:36:05;;;;;;;9.43;5.07;;;17.40;80.20;;;;;;4946198;28;20735;-73
2022/05/20 03:38:30;;;;;;;5.55;3.70;;;17.30;80.30;;;;;;4990061;28;20037;-73
2022/05/20 03:40:56;;;;;;;6.30;4.13;;;17.30;81.20;;;;;;4983011;28;20739;-73
2022/05/20 03:43:22;;;;;;;9.30;4.20;;;17.40;80.40;;;;;;4983703;28;20081;-73
2022/05/20 03:45:48;;;;;;;9.00;3.70;;;17.40;80.70;;;;;;4954548;28;20531;-72
2022/05/20 03:48:13;;;;;;;7.38;3.95;;;17.30;80.70;;;;;;4980942;28;20734;-73
2022/05/20 03:50:39;;;;;;;5.72;3.05;;;17.30;80.70;;;;;;4969402;28;20058;-75
2022/05/20 03:53:05;;;;;;;5.60;3.80;;;17.30;80.90;;;;;;4972718;28;20062;-74
2022/05/20 03:55:30;;;;;;;5.28;4.13;;;17.30;80.80;;;;;;4979703;28;20109;-73
2022/05/20 03:57:56;;;;;;;5.43;4.65;;;17.30;80.80;;;;;;4969458;28;20088;-72
2022/05/20 04:00:22;;;;;;;9.52;3.78;;;17.30;81.00;;;;;;4976647;28;20064;-73
2022/05/20 04:02:47;;;;;;;10.18;5.30;;;17.30;81.20;;;;;;4984705;28;20112;-72
2022/05/20 04:05:13;;;;;;;13.05;7.38;;;17.30;81.20;;;;;;4951976;28;20104;-73
2022/05/20 04:07:41;;;;;;;8.85;6.63;;;17.40;81.20;;;;;;4966419;28;20037;-72
2022/05/20 04:10:08;;;;;;;8.32;7.35;;;17.40;81.50;;;;;;4998940;28;20038;-73
2022/05/20 04:12:40;;;;;;;8.35;6.28;;;17.30;81.40;;;;;;4990983;28;20105;-73
2022/05/20 04:15:07;;;;;;;12.73;9.68;;;17.40;81.40;;;;;;4953825;28;20113;-73
2022/05/20 04:17:33;;;;;;;12.88;9.38;;;17.30;81.40;;;;;;4983485;28;20034;-73
2022/05/20 04:19:58;;;;;;;7.10;5.90;;;17.40;81.60;;;;;;4975083;28;20152;-72
2022/05/20 04:22:28;;;;;;;10.05;8.48;;;17.40;81.60;;;;;;4973549;28;20033;-73
2022/05/20 04:24:53;;;;;;;10.70;8.88;;;17.40;81.30;;;;;;4995582;28;20054;-73
2022/05/20 04:27:19;;;;;;;12.63;8.38;;;17.40;81.30;;;;;;4950729;28;20368;-74
2022/05/20 04:29:45;;;;;;;12.27;10.07;;;17.50;81.30;;;;;;4982335;28;20305;-73
2022/05/20 04:32:10;;;;;;;8.98;6.75;;;17.50;81.30;;;;;;4982439;28;20042;-75
2022/05/20 04:34:36;;;;;;;7.55;5.43;;;17.50;81.30;;;;;;4970083;28;20038;-75
2022/05/20 04:37:01;;;;;;;6.57;5.88;;;17.50;81.30;;;;;;4974264;28;20607;-72
2022/05/20 04:39:27;;;;;;;6.95;5.07;;;17.50;82.20;;;;;;4981502;28;20188;-73
2022/05/20 04:47:23;;;;;;;5.32;3.15;;;17.50;81.00;;;;;;4993176;28;20052;-73
2022/05/20 04:49:49;;;;;;;3.97;2.90;;;17.60;81.10;;;;;;4954724;28;20145;-72
2022/05/20 04:52:15;;;;;;;4.32;2.95;;;17.50;81.20;;;;;;5003832;28;20098;-73
2022/05/20 04:54:49;;;;;;;3.97;3.28;;;17.50;81.30;;;;;;4991377;28;20058;-74
2022/05/20 04:57:27;;;;;;;4.18;3.28;;;17.50;81.30;;;;;;4979346;28;20041;-73
2022/05/20 04:59:57;;;;;;;6.13;3.60;;;17.60;81.60;;;;;;4985701;28;20041;-72
2022/05/20 05:02:23;;;;;;;4.25;3.85;;;17.60;81.30;;;;;;4969909;28;20045;-73
2022/05/20 05:04:48;;;;;;;2.90;2.55;;;17.60;81.40;;;;;;4988987;28;20531;-73
2022/05/20 05:07:14;;;;;;;6.03;3.28;;;17.60;81.60;;;;;;4979805;28;20026;-73
2022/05/20 05:09:40;;;;;;;2.85;2.65;;;17.60;81.40;;;;;;4999421;28;20534;-72
2022/05/20 05:12:07;;;;;;;4.25;3.05;;;17.60;81.50;;;;;;4986363;28;20135;-73
2022/05/20 05:14:37;;;;;;;4.68;2.85;;;17.60;81.40;;;;;;4981292;28;20038;-72
2022/05/20 05:17:09;;;;;;;4.80;3.25;;;17.60;81.70;;;;;;4991599;28;20042;-72
2022/05/20 05:19:36;;;;;;;8.05;3.50;;;17.70;81.90;;;;;;4971488;28;20050;-73
2022/05/20 05:22:02;;;;;;;6.97;3.33;;;17.70;81.70;;;;;;4977628;28;20042;-72
2022/05/20 05:24:28;;;;;;;4.15;2.60;;;17.70;81.70;;;;;;4966714;28;20045;-73
2022/05/20 05:26:53;;;;;;;4.50;2.63;;;17.70;81.80;;;;;;4976467;28;20042;-73
2022/05/20 05:29:19;;;;;;;7.13;3.08;;;17.70;81.70;;;;;;4981268;28;20030;-73
2022/05/20 05:31:45;;;;;;;2.50;2.30;;;17.80;81.90;;;;;;5000632;28;20038;-73
2022/05/20 05:34:10;;;;;;;2.85;2.60;;;17.80;81.90;;;;;;5000925;28;20097;-72
2022/05/20 05:36:36;;;;;;;7.47;3.00;;;17.80;81.80;;;;;;4997425;28;20034;-73
2022/05/20 05:39:02;;;;;;;11.57;3.38;;;17.90;81.90;;;;;;4980903;28;20044;-74
2022/05/20 05:41:27;;;;;;;5.13;3.35;;;17.90;81.60;;;;;;4981803;28;20037;-73
2022/05/20 05:43:53;;;;;;;4.57;2.35;;;17.90;81.60;;;;;;4977338;28;20675;-73
2022/05/20 05:46:19;;;;;;;8.73;3.28;;;17.90;81.60;;;;;;4981784;28;20380;-73
2022/05/20 05:48:44;;;;;;;3.58;2.80;;;17.90;81.60;;;;;;4984314;28;20045;-72
2022/05/20 05:51:10;;;;;;;2.50;2.30;;;17.90;81.60;;;;;;5000700;28;20038;-72
2022/05/20 05:53:36;;;;;;;3.05;2.20;;;18.00;81.60;;;;;;4997579;28;20037;-72
2022/05/20 05:56:02;;;;;;;8.23;3.00;;;18.00;81.30;;;;;;4975643;28;20034;-72
2022/05/20 05:58:28;;;;;;;6.07;3.30;;;18.00;81.10;;;;;;4957400;28;20042;-72
2022/05/20 06:00:54;;;;;;;7.47;3.95;;;18.10;81.20;;;;;;5001271;28;20037;-72
2022/05/20 06:03:20;;;;;;;3.40;3.10;;;18.10;81.20;;;;;;4999626;28;20113;-72
2022/05/20 06:05:46;;;;;;;4.82;3.53;;;18.10;81.20;;;;;;4950250;28;20061;-72
2022/05/20 06:08:12;;;;;;;6.13;3.92;;;18.10;81.40;;;;;;4980189;28;20522;-72
2022/05/20 06:10:37;;;;;;;4.78;3.92;;;18.10;81.40;;;;;;4999133;28;20812;-72
2022/05/20 06:13:03;;;;;;;6.88;2.88;;;18.20;81.50;;;;;;4959229;28;20042;-72
2022/05/20 06:15:29;;;;;;;5.03;3.53;;;18.10;81.40;;;;;;4965564;28;20080;-72
2022/05/20 06:17:55;;;;;;;5.32;3.50;;;18.10;81.30;;;;;;4994422;28;20395;-73
2022/05/20 06:20:21;;;;;;;9.18;5.72;;;18.10;81.10;;;;;;4974361;28;20053;-72
2022/05/20 06:22:47;;;;;;;4.72;4.07;;;18.20;81.30;;;;;;4978250;28;20022;-72
2022/05/20 06:25:13;;;;;;;5.68;5.13;;;18.20;81.30;;;;;;4981089;28;20108;-73
2022/05/20 06:27:38;;;;;;;8.20;5.57;;;18.20;81.10;;;;;;4970946;28;20041;-73
2022/05/20 06:30:07;;;;;;;4.45;3.90;;;18.20;81.30;;;;;;4998989;28;20050;-72
2022/05/20 06:32:32;;;;;;;5.55;4.43;;;18.20;81.40;;;;;;4998957;28;20045;-72
2022/05/20 06:40:36;;;;;;;6.60;5.25;;;18.30;81.60;;;;;;4998656;28;20398;-73
2022/05/20 06:43:02;;;;;;;5.07;4.53;;;18.30;81.30;;;;;;4995387;28;20038;-72
2022/05/20 06:45:30;;;;;;;5.75;4.03;;;18.40;81.50;;;;;;4979177;28;20031;-72
2022/05/20 06:47:56;;;;;;;7.93;4.25;;;18.40;81.40;;;;;;4997549;28;20045;-72
2022/05/20 06:50:21;;;;;;;8.13;4.63;;;18.40;81.40;;;;;;4973875;28;20061;-73
2022/05/20 06:52:47;;;;;;;5.05;4.10;;;18.50;81.50;;;;;;4957716;28;20048;-73
2022/05/20 06:55:12;;;;;;;4.95;3.35;;;18.50;81.60;;;;;;4981072;28;20121;-72
2022/05/20 06:57:39;;;;;;;4.15;3.10;;;18.60;81.60;;;;;;4964433;28;20560;-74
2022/05/20 07:00:06;;;;;;;5.75;4.13;;;18.80;81.50;;;;;;4969004;28;20560;-72
2022/05/20 07:02:32;;;;;;;7.93;4.95;;;18.90;81.20;;;;;;4980791;28;20478;-72
2022/05/20 07:04:57;;;;;;;5.30;4.30;;;18.90;81.20;;;;;;4972112;28;20040;-72
2022/05/20 07:07:23;;;;;;;4.65;3.78;;;19.00;81.20;;;;;;4994325;28;20026;-72
2022/05/20 07:09:49;;;;;;;6.35;4.32;;;19.10;81.10;;;;;;4982014;28;20028;-72
2022/05/20 07:12:14;;;;;;;11.05;4.55;;;19.20;80.90;;;;;;4969445;28;20053;-72
2022/05/20 07:14:40;;;;;;;5.78;3.58;;;19.20;80.70;;;;;;4969328;28;20031;-72
2022/05/20 07:17:05;;;;;;;6.97;3.53;;;19.30;80.50;;;;;;4966258;28;20034;-72
2022/05/20 07:19:32;;;;;;;4.95;4.00;;;19.40;80.30;;;;;;4997638;28;20438;-72
2022/05/20 07:21:58;;;;;;;4.82;4.30;;;19.50;80.20;;;;;;4967126;28;20672;-73
2022/05/20 07:24:24;;;;;;;7.32;4.88;;;19.50;80.20;;;;;;4997237;28;20105;-73
2022/05/20 07:26:49;;;;;;;5.80;4.45;;;19.50;80.30;;;;;;4990481;28;20454;-73
2022/05/20 07:29:15;;;;;;;7.22;3.70;;;19.60;80.20;;;;;;4982607;28;20042;-72
2022/05/20 07:31:40;;;;;;;7.00;4.45;;;19.60;80.00;;;;;;4985568;28;20037;-72
2022/05/20 07:34:06;;;;;;;5.07;4.25;;;19.70;79.80;;;;;;4980146;28;20581;-72
2022/05/20 07:36:32;;;;;;;7.80;4.45;;;19.70;79.70;;;;;;4983217;28;20048;-73
2022/05/20 07:38:58;;;;;;;5.13;3.50;;;19.80;79.70;;;;;;4975063;28;20049;-73
2022/05/20 07:41:24;;;;;;;5.60;4.50;;;19.90;79.80;;;;;;5001390;28;20033;-73
2022/05/20 07:43:50;;;;;;;5.47;4.30;;;20.00;79.60;;;;;;4967697;28;20521;-74
2022/05/20 07:46:15;;;;;;;5.60;3.78;;;20.00;79.40;;;;;;4965435;28;20130;-73
2022/05/20 07:48:41;;;;;;;8.63;5.10;;;20.10;79.30;;;;;;4978353;28;20398;-73
2022/05/20 07:51:12;;;;;;;5.70;3.53;;;20.20;79.20;;;;;;4999452;28;20034;-72
2022/05/20 07:53:41;;;;;;;10.32;4.20;;;20.30;79.30;;;;;;4984579;28;20042;-73
2022/05/20 07:56:42;;;;;;;5.65;3.80;;;20.40;79.00;;;;;;4994189;28;20121;-72
2022/05/20 07:59:16;;;;;;;4.72;3.45;;;20.50;78.90;;;;;;4954538;28;20038;-72
2022/05/20 08:01:44;;;;;;;5.93;4.05;;;20.70;78.70;;;;;;4953635;28;20069;-73
2022/05/20 08:06:55;;;;;;;5.47;4.38;;;20.90;78.20;;;;;;4995035;28;20103;-73
2022/05/20 08:09:21;;;;;;;5.72;4.55;;;21.00;77.90;;;;;;4986741;28;20042;-74
2022/05/20 08:11:46;;;;;;;5.95;4.03;;;21.10;77.70;;;;;;4991748;28;20614;-74
2022/05/20 08:14:12;;;;;;;4.97;3.88;;;21.10;77.50;;;;;;4965740;28;20505;-74
2022/05/20 08:16:38;;;;;;;6.20;4.35;;;21.30;77.50;;;;;;4966230;28;20035;-74
2022/05/20 08:19:03;;;;;;;7.07;3.28;;;21.30;77.40;;;;;;4955948;28;20050;-74
2022/05/20 08:21:29;;;;;;;4.93;3.63;;;21.50;77.50;;;;;;4971207;28;20030;-74
2022/05/20 08:23:54;;;;;;;4.90;3.72;;;21.60;77.10;;;;;;5003404;28;20445;-73
2022/05/20 08:26:20;;;;;;;5.07;3.00;;;21.80;77.00;;;;;;4986719;28;20038;-73
2022/05/20 08:28:46;;;;;;;7.95;4.45;;;21.90;76.90;;;;;;4949078;28;20129;-74
2022/05/20 08:31:12;;;;;;;7.25;4.22;;;22.10;76.70;;;;;;4999972;28;20037;-73
2022/05/20 08:33:37;;;;;;;7.25;4.47;;;22.30;76.60;;;;;;4988758;28;20198;-74
2022/05/20 08:36:03;;;;;;;5.93;4.32;;;22.50;76.20;;;;;;4982588;28;20038;-74
2022/05/20 08:38:30;;;;;;;7.75;5.25;;;22.60;76.00;;;;;;4999782;28;20406;-73
2022/05/20 08:40:57;;;;;;;5.38;4.68;;;22.90;75.90;;;;;;4977459;28;20042;-74
2022/05/20 08:43:25;;;;;;;11.02;5.20;;;23.00;75.50;;;;;;4975192;28;20042;-75
2022/05/20 08:45:50;;;;;;;8.00;5.38;;;23.20;75.20;;;;;;4982317;28;20053;-73
2022/05/20 08:48:16;;;;;;;6.63;4.18;;;23.50;75.00;;;;;;4970640;28;20118;-73
2022/05/20 08:50:43;;;;;;;7.88;5.50;;;23.60;74.60;;;;;;4972198;28;20425;-75
2022/05/20 08:53:16;;;;;;;5.43;4.93;;;23.90;74.10;;;;;;4970262;28;20490;-74
2022/05/20 08:55:42;;;;;;;5.40;4.13;;;24.00;73.50;;;;;;4997665;28;20045;-74
2022/05/20 08:58:08;;;;;;;5.30;3.67;;;24.10;73.10;;;;;;4988849;28;21826;-74
2022/05/20 09:00:33;;;;;;;5.80;4.05;;;24.30;72.80;;;;;;5000100;28;20041;-74
2022/05/20 09:03:06;;;;;;;5.25;3.17;;;24.40;72.40;;;;;;4996338;28;20180;-74
2022/05/20 09:05:36;;;;;;;6.03;3.17;;;24.60;72.10;;;;;;4990492;28;20097;-74
2022/05/20 09:08:05;;;;;;;3.15;2.85;;;24.90;71.90;;;;;;4960158;28;20256;-74
2022/05/20 09:10:38;;;;;;;5.78;4.28;;;25.10;71.30;;;;;;4999346;28;20124;-74
2022/05/20 09:13:08;;;;;;;6.80;3.22;;;25.20;70.30;;;;;;4973637;28;20030;-74
2022/05/20 09:15:43;;;;;;;4.95;2.83;;;25.20;70.10;;;;;;4986795;28;20095;-74
2022/05/20 09:18:22;;;;;;;5.68;3.40;;;25.30;69.90;;;;;;4999153;28;20680;-74
2022/05/20 09:20:51;;;;;;;4.03;3.28;;;25.50;69.80;;;;;;4992191;28;20034;-74
2022/05/20 09:23:20;;;;;;;5.30;3.20;;;25.60;69.40;;;;;;4982862;28;20044;-73
2022/05/20 09:26:06;;;;;;;4.63;3.22;;;25.70;69.20;;;;;;4974498;28;20057;-74
2022/05/20 09:28:36;;;;;;;5.85;3.70;;;25.90;68.90;;;;;;4963428;28;21461;-73
2022/05/20 09:31:22;;;;;;;7.45;3.55;;;26.00;68.50;;;;;;4985932;28;20038;-74
2022/05/20 09:33:59;;;;;;;3.17;2.72;;;26.30;68.00;;;;;;4990978;28;20380;-75
2022/05/20 09:36:34;;;;;;;6.55;3.38;;;26.50;67.30;;;;;;4965295;28;20162;-74
2022/05/20 09:39:19;;;;;;;4.35;2.88;;;26.80;66.80;;;;;;4999059;28;20057;-74
2022/05/20 09:41:46;;;;;;;7.82;3.97;;;26.90;65.80;;;;;;4962131;28;20042;-74
2022/05/20 09:44:13;;;;;;;6.70;3.65;;;27.00;65.80;;;;;;4969412;28;20068;-74
2022/05/20 09:46:49;;;;;;;3.50;3.20;;;27.10;65.10;;;;;;4999233;28;20442;-74
2022/05/20 09:49:16;;;;;;;7.45;3.42;;;27.10;64.60;;;;;;4999498;28;20050;-74
2022/05/20 09:51:48;;;;;;;6.60;3.58;;;27.20;64.70;;;;;;4971340;28;20058;-74
2022/05/20 09:54:23;;;;;;;5.85;3.47;;;27.40;64.60;;;;;;4985760;28;20578;-74
2022/05/20 09:57:04;;;;;;;8.90;3.17;;;27.50;64.40;;;;;;4981322;28;20038;-75
2022/05/20 09:59:46;;;;;;;9.13;3.65;;;27.80;63.60;;;;;;4998835;28;20053;-74
2022/05/20 10:02:31;;;;;;;3.70;2.75;;;28.10;63.30;;;;;;5005991;28;20038;-75
2022/05/20 10:05:14;;;;;;;8.55;3.10;;;28.40;62.00;;;;;;5011120;28;20042;-74
2022/05/20 10:08:00;;;;;;;6.65;3.08;;;28.70;62.10;;;;;;4998773;28;20049;-75
2022/05/20 10:10:42;;;;;;;4.18;2.63;;;29.00;60.60;;;;;;4980424;28;20052;-75
2022/05/20 10:13:09;;;;;;;6.57;2.95;;;29.30;60.20;;;;;;4987699;28;20018;-75
2022/05/20 10:15:40;;;;;;;4.68;2.67;;;29.50;60.00;;;;;;4987230;28;20068;-74
2022/05/20 10:18:26;;;;;;;8.68;3.28;;;29.80;59.30;;;;;;5011826;28;20037;-76
2022/05/20 10:20:52;;;;;;;7.88;2.75;;;30.00;58.40;;;;;;5008047;28;20030;-75
2022/05/20 10:23:37;;;;;;;8.63;3.42;;;30.20;58.60;;;;;;5013741;28;20044;-75
2022/05/20 10:26:08;;;;;;;3.63;3.30;;;30.40;57.10;;;;;;4990022;28;20076;-75
2022/05/20 10:34:47;;;;;;;6.55;3.25;;;31.10;56.30;;;;;;4973637;28;20056;-74
2022/05/20 10:37:13;;;;;;;4.85;3.63;;;31.30;56.40;;;;;;4997911;28;20033;-74
2022/05/20 10:39:58;;;;;;;6.82;3.20;;;31.50;56.00;;;;;;5015776;28;20050;-74
2022/05/20 10:42:44;;;;;;;6.22;3.40;;;31.70;54.80;;;;;;5015328;28;20030;-75
2022/05/20 10:51:00;;;;;;;6.40;2.80;;;32.20;54.30;;;;;;5002890;28;20117;-75
2022/05/20 10:53:38;;;;;;;4.53;3.40;;;32.50;53.90;;;;;;5015375;28;20046;-75
2022/05/20 10:56:13;;;;;;;11.70;3.75;;;32.60;53.00;;;;;;4999524;28;20025;-74
2022/05/20 10:58:58;;;;;;;5.68;2.90;;;32.70;52.30;;;;;;5012153;28;20050;-75
2022/05/20 11:01:30;;;;;;;3.13;2.83;;;32.90;52.30;;;;;;4992094;28;20038;-75
2022/05/20 11:04:18;;;;;;;5.00;3.63;;;33.00;52.30;;;;;;5007862;28;20034;-75
2022/05/20 11:07:07;;;;;;;4.38;3.17;;;33.10;51.50;;;;;;4994069;28;20026;-75
2022/05/20 11:09:51;;;;;;;4.30;3.00;;;33.10;51.00;;;;;;4995974;28;20048;-74
2022/05/20 11:12:37;;;;;;;3.05;2.75;;;33.10;51.30;;;;;;5002321;28;20030;-75
2022/05/20 11:15:19;;;;;;;3.88;3.05;;;33.20;51.40;;;;;;4969396;28;20064;-74
2022/05/20 11:18:00;;;;;;;4.53;3.35;;;33.40;51.30;;;;;;5001040;28;20085;-75
2022/05/20 11:20:31;;;;;;;5.88;3.33;;;33.40;51.00;;;;;;4986475;28;20030;-75
2022/05/20 11:23:35;;;;;;;4.05;3.08;;;33.50;50.60;;;;;;5004301;28;20399;-74
2022/05/20 11:26:18;;;;;;;6.13;3.65;;;33.70;50.10;;;;;;5011982;28;20030;-75
2022/05/20 11:29:07;;;;;;;6.40;3.33;;;33.80;49.60;;;;;;5012548;28;20042;-75
2022/05/20 11:31:49;;;;;;;4.68;3.22;;;34.00;49.90;;;;;;5013195;28;20121;-75
2022/05/20 11:34:26;;;;;;;7.90;3.75;;;34.10;49.30;;;;;;5000321;28;20089;-76
2022/05/20 11:37:06;;;;;;;8.55;3.67;;;34.30;49.20;;;;;;5008173;28;20113;-75
2022/05/20 11:39:34;;;;;;;4.95;2.90;;;34.50;49.30;;;;;;4996737;28;20034;-75
2022/05/20 11:42:19;;;;;;;7.32;3.78;;;34.60;48.80;;;;;;5005405;28;20041;-75
2022/05/20 11:45:17;;;;;;;7.82;3.72;;;34.80;48.00;;;;;;4977522;28;20036;-75
2022/05/20 11:47:59;;;;;;;4.50;3.40;;;34.90;47.00;;;;;;5006606;28;20034;-73
2022/05/20 11:50:36;;;;;;;4.32;3.35;;;34.90;47.50;;;;;;5007262;28;20025;-75
2022/05/20 11:53:17;;;;;;;8.05;3.10;;;35.00;46.70;;;;;;5013534;28;20038;-74
2022/05/20 11:55:52;;;;;;;4.72;2.97;;;35.20;46.80;;;;;;5013886;28;20034;-75
2022/05/20 11:58:28;;;;;;;5.22;3.20;;;35.40;47.00;;;;;;4998524;28;20030;-74
2022/05/20 12:00:54;;;;;;;5.30;3.20;;;35.50;46.30;;;;;;4994638;28;20030;-75
2022/05/20 12:03:22;;;;;;;4.20;3.40;;;35.70;46.70;;;;;;4994958;28;20782;-74
2022/05/20 12:05:48;;;;;;;6.43;3.17;;;35.80;46.40;;;;;;5004233;28;20046;-75
2022/05/20 12:08:44;;;;;;;4.78;3.40;;;35.80;46.00;;;;;;4984704;28;20034;-76
2022/05/20 12:11:28;;;;;;;7.75;3.25;;;35.90;44.60;;;;;;4994180;28;20022;-73
2022/05/20 12:14:01;;;;;;;9.55;3.67;;;36.00;44.40;;;;;;5011603;28;20091;-74
2022/05/20 12:16:27;;;;;;;4.28;3.00;;;36.20;45.10;;;;;;5010142;28;20018;-74
2022/05/20 12:24:33;;;;;;;7.00;3.60;;;36.40;44.50;;;;;;5011894;28;20806;-76
2022/05/20 12:26:58;;;;;;;5.35;3.17;;;36.50;44.20;;;;;;5005217;28;20418;-75
2022/05/20 12:29:43;;;;;;;5.55;3.20;;;36.60;44.10;;;;;;4988886;28;20029;-74
2022/05/20 12:32:31;;;;;;;7.03;3.28;;;36.80;43.50;;;;;;4995126;28;20053;-74
2022/05/20 12:35:15;;;;;;;7.85;3.03;;;36.90;43.10;;;;;;5006380;28;20026;-74
2022/05/20 12:37:44;;;;;;;4.70;2.97;;;37.10;43.60;;;;;;5005690;28;20025;-74
2022/05/20 12:40:16;;;;;;;4.75;3.10;;;37.10;43.30;;;;;;5005157;28;20425;-75
2022/05/20 12:42:56;;;;;;;5.53;3.03;;;37.20;42.80;;;;;;5009211;28;20037;-74
2022/05/20 12:45:22;;;;;;;4.78;3.35;;;37.20;42.70;;;;;;4991798;28;20041;-73
2022/05/20 12:47:48;;;;;;;2.85;2.47;;;37.40;42.80;;;;;;4993143;28;20045;-74
2022/05/20 12:50:16;;;;;;;3.92;3.00;;;37.50;42.50;;;;;;5008590;28;20041;-73
2022/05/20 12:52:52;;;;;;;3.97;2.78;;;37.50;42.00;;;;;;5006743;28;20059;-74
2022/05/20 12:55:22;;;;;;;4.88;2.90;;;37.50;41.40;;;;;;4988489;28;20663;-76
2022/05/20 12:57:55;;;;;;;7.77;3.00;;;37.60;41.80;;;;;;5007836;28;20080;-73
2022/05/20 13:00:36;;;;;;;4.03;3.38;;;37.70;41.50;;;;;;5006267;28;20026;-73
2022/05/20 13:03:05;;;;;;;6.05;3.05;;;37.80;40.80;;;;;;4991113;28;20375;-73
2022/05/20 13:05:38;;;;;;;6.20;3.00;;;37.90;41.00;;;;;;4976044;28;20126;-72
2022/05/20 13:08:09;;;;;;;5.10;3.03;;;37.90;40.40;;;;;;4994196;28;20049;-73
2022/05/20 13:10:36;;;;;;;5.93;2.67;;;37.90;40.00;;;;;;4979983;28;20040;-73
2022/05/20 13:13:02;;;;;;;7.60;2.40;;;38.00;39.90;;;;;;5011017;28;20034;-73
2022/05/20 13:15:28;;;;;;;7.13;2.80;;;38.00;39.40;;;;;;5007452;28;20034;-73
2022/05/20 13:18:06;;;;;;;4.82;2.42;;;38.00;38.90;;;;;;5006528;28;20164;-73
2022/05/20 13:20:32;;;;;;;8.70;2.42;;;38.00;37.30;;;;;;4979479;28;20030;-74
2022/05/20 13:23:05;;;;;;;6.95;2.90;;;38.00;37.80;;;;;;4970094;28;20471;-75
2022/05/20 13:25:30;;;;;;;4.00;2.58;;;38.00;37.20;;;;;;5004500;28;21438;-75
2022/05/20 13:27:56;;;;;;;6.28;2.45;;;38.00;36.90;;;;;;4976671;28;20045;-73
2022/05/20 13:30:25;;;;;;;7.03;2.03;;;38.00;36.90;;;;;;4998039;28;20762;-73
2022/05/20 13:32:51;;;;;;;7.68;2.65;;;38.00;36.50;;;;;;5003024;28;20113;-72
2022/05/20 13:35:16;;;;;;;6.97;2.58;;;38.00;37.10;;;;;;4973418;28;20041;-73
2022/05/20 13:37:50;;;;;;;6.13;2.78;;;38.00;36.10;;;;;;4990514;28;20747;-73